sensor_id;sensor_type;location;lat;lon;timestamp;temperature;humidity
44229;DHT22;29904;51.058;5.378;2023-09-30T00:01:09;12.40;99.90
44229;DHT22;29904;51.058;5.378;2023-09-30T00:03:36;12.40;99.90
44229;DHT22;29904;51.058;5.378;2023-09-30T00:06:02;12.40;99.90
44229;DHT22;29904;51.058;5.378;2023-09-30T00:08:29;12.40;99.90
44229;DHT22;29904;51.058;5.378;2023-09-30T00:10:55;12.40;99.90
44229;DHT22;29904;51.058;5.378;2023-09-30T00:13:23;12.40;99.90
44229;DHT22;29904;51.058;5.378;2023-09-30T00:15:49;12.40;99.90
44229;DHT22;29904;51.058;5.378;2023-09-30T00:18:15;12.30;99.90
44229;DHT22;29904;51.058;5.378;2023-09-30T00:20:40;12.30;99.90
44229;DHT22;29904;51.058;5.378;2023-09-30T00:23:06;12.30;99.90
44229;DHT22;29904;51.058;5.378;2023-09-30T00:25:32;12.30;99.90
44229;DHT22;29904;51.058;5.378;2023-09-30T00:28:00;12.30;99.90
44229;DHT22;29904;51.058;5.378;2023-09-30T00:30:26;12.30;99.90
44229;DHT22;29904;51.058;5.378;2023-09-30T00:32:51;12.30;99.90
44229;DHT22;29904;51.058;5.378;2023-09-30T00:35:19;12.30;99.90
44229;DHT22;29904;51.058;5.378;2023-09-30T00:37:45;12.30;99.90
44229;DHT22;29904;51.058;5.378;2023-09-30T00:40:11;12.30;99.90
44229;DHT22;29904;51.058;5.378;2023-09-30T00:42:40;12.40;99.90
44229;DHT22;29904;51.058;5.378;2023-09-30T00:45:07;12.30;99.90
44229;DHT22;29904;51.058;5.378;2023-09-30T00:47:34;12.30;99.90
44229;DHT22;29904;51.058;5.378;2023-09-30T00:50:02;12.30;99.90
44229;DHT22;29904;51.058;5.378;2023-09-30T00:52:31;12.30;99.90
44229;DHT22;29904;51.058;5.378;2023-09-30T00:54:57;12.30;99.90
44229;DHT22;29904;51.058;5.378;2023-09-30T00:57:24;12.30;99.90
44229;DHT22;29904;51.058;5.378;2023-09-30T00:59:50;12.30;99.90
44229;DHT22;29904;51.058;5.378;2023-09-30T01:02:17;12.30;99.90
44229;DHT22;29904;51.058;5.378;2023-09-30T01:04:43;12.30;99.90
44229;DHT22;29904;51.058;5.378;2023-09-30T01:07:09;12.20;99.90
44229;DHT22;29904;51.058;5.378;2023-09-30T01:09:35;12.20;99.90
44229;DHT22;29904;51.058;5.378;2023-09-30T01:12:02;12.30;99.90
44229;DHT22;29904;51.058;5.378;2023-09-30T01:14:32;12.40;99.90
44229;DHT22;29904;51.058;5.378;2023-09-30T01:17:04;12.40;99.90
44229;DHT22;29904;51.058;5.378;2023-09-30T01:19:34;12.40;99.90
44229;DHT22;29904;51.058;5.378;2023-09-30T01:22:00;12.30;99.90
44229;DHT22;29904;51.058;5.378;2023-09-30T01:24:27;12.30;99.90
44229;DHT22;29904;51.058;5.378;2023-09-30T01:26:53;12.30;99.90
44229;DHT22;29904;51.058;5.378;2023-09-30T01:29:19;12.30;99.90
44229;DHT22;29904;51.058;5.378;2023-09-30T01:31:46;12.30;99.90
44229;DHT22;29904;51.058;5.378;2023-09-30T01:34:15;12.20;99.90
44229;DHT22;29904;51.058;5.378;2023-09-30T01:36:42;12.20;99.90
44229;DHT22;29904;51.058;5.378;2023-09-30T01:39:09;12.20;99.90
44229;DHT22;29904;51.058;5.378;2023-09-30T01:41:38;12.10;99.90
44229;DHT22;29904;51.058;5.378;2023-09-30T01:44:04;12.10;99.90
44229;DHT22;29904;51.058;5.378;2023-09-30T01:46:30;12.00;99.90
44229;DHT22;29904;51.058;5.378;2023-09-30T01:48:58;12.00;99.90
44229;DHT22;29904;51.058;5.378;2023-09-30T01:51:23;11.90;99.90
44229;DHT22;29904;51.058;5.378;2023-09-30T01:53:49;11.90;99.90
44229;DHT22;29904;51.058;5.378;2023-09-30T01:56:17;11.80;99.90
44229;DHT22;29904;51.058;5.378;2023-09-30T01:58:43;11.80;99.90
44229;DHT22;29904;51.058;5.378;2023-09-30T02:01:09;11.80;99.90
44229;DHT22;29904;51.058;5.378;2023-09-30T02:03:34;11.80;99.90
44229;DHT22;29904;51.058;5.378;2023-09-30T02:06:00;11.80;99.90
44229;DHT22;29904;51.058;5.378;2023-09-30T02:08:26;11.70;99.90
44229;DHT22;29904;51.058;5.378;2023-09-30T02:10:53;11.60;99.90
44229;DHT22;29904;51.058;5.378;2023-09-30T02:13:21;11.60;99.90
44229;DHT22;29904;51.058;5.378;2023-09-30T02:15:46;11.60;99.90
44229;DHT22;29904;51.058;5.378;2023-09-30T02:18:12;11.60;99.90
44229;DHT22;29904;51.058;5.378;2023-09-30T02:20:39;11.60;99.90
44229;DHT22;29904;51.058;5.378;2023-09-30T02:23:09;11.60;99.90
44229;DHT22;29904;51.058;5.378;2023-09-30T02:25:40;11.60;99.90
44229;DHT22;29904;51.058;5.378;2023-09-30T02:28:06;11.60;99.90
44229;DHT22;29904;51.058;5.378;2023-09-30T02:30:32;11.50;99.90
44229;DHT22;29904;51.058;5.378;2023-09-30T02:32:58;11.50;99.90
44229;DHT22;29904;51.058;5.378;2023-09-30T02:35:25;11.50;99.90
44229;DHT22;29904;51.058;5.378;2023-09-30T02:37:52;11.50;99.90
44229;DHT22;29904;51.058;5.378;2023-09-30T02:40:20;11.50;99.90
44229;DHT22;29904;51.058;5.378;2023-09-30T02:42:46;11.40;99.90
44229;DHT22;29904;51.058;5.378;2023-09-30T02:45:15;11.40;99.90
44229;DHT22;29904;51.058;5.378;2023-09-30T02:47:44;11.40;99.90
44229;DHT22;29904;51.058;5.378;2023-09-30T02:50:12;11.40;99.90
44229;DHT22;29904;51.058;5.378;2023-09-30T02:52:38;11.40;99.90
44229;DHT22;29904;51.058;5.378;2023-09-30T02:55:12;11.40;99.90
44229;DHT22;29904;51.058;5.378;2023-09-30T02:57:38;11.40;99.90
44229;DHT22;29904;51.058;5.378;2023-09-30T03:00:05;11.40;99.90
44229;DHT22;29904;51.058;5.378;2023-09-30T03:02:51;11.40;99.90
44229;DHT22;29904;51.058;5.378;2023-09-30T03:05:18;11.40;99.90
44229;DHT22;29904;51.058;5.378;2023-09-30T03:07:44;11.40;99.90
44229;DHT22;29904;51.058;5.378;2023-09-30T03:10:11;11.40;99.90
44229;DHT22;29904;51.058;5.378;2023-09-30T03:12:38;11.40;99.90
44229;DHT22;29904;51.058;5.378;2023-09-30T03:15:04;11.30;99.90
44229;DHT22;29904;51.058;5.378;2023-09-30T03:17:31;11.40;99.90
44229;DHT22;29904;51.058;5.378;2023-09-30T03:19:58;11.30;99.90
44229;DHT22;29904;51.058;5.378;2023-09-30T03:22:25;11.40;99.90
44229;DHT22;29904;51.058;5.378;2023-09-30T03:24:54;11.40;99.90
44229;DHT22;29904;51.058;5.378;2023-09-30T03:27:22;11.50;99.90
44229;DHT22;29904;51.058;5.378;2023-09-30T03:29:47;11.50;99.90
44229;DHT22;29904;51.058;5.378;2023-09-30T03:32:14;11.60;99.90
44229;DHT22;29904;51.058;5.378;2023-09-30T03:34:40;11.60;99.90
44229;DHT22;29904;51.058;5.378;2023-09-30T03:37:10;11.70;99.90
44229;DHT22;29904;51.058;5.378;2023-09-30T03:39:36;11.70;99.90
44229;DHT22;29904;51.058;5.378;2023-09-30T03:42:02;11.70;99.90
44229;DHT22;29904;51.058;5.378;2023-09-30T03:44:29;11.70;99.90
44229;DHT22;29904;51.058;5.378;2023-09-30T03:46:54;11.60;99.90
44229;DHT22;29904;51.058;5.378;2023-09-30T03:49:20;11.60;99.90
44229;DHT22;29904;51.058;5.378;2023-09-30T03:51:46;11.60;99.90
44229;DHT22;29904;51.058;5.378;2023-09-30T03:54:12;11.60;99.90
44229;DHT22;29904;51.058;5.378;2023-09-30T03:56:38;11.60;99.90
44229;DHT22;29904;51.058;5.378;2023-09-30T03:59:04;11.60;99.90
44229;DHT22;29904;51.058;5.378;2023-09-30T04:01:30;11.60;99.90
44229;DHT22;29904;51.058;5.378;2023-09-30T04:03:56;11.60;99.90
44229;DHT22;29904;51.058;5.378;2023-09-30T04:06:22;11.60;99.90
44229;DHT22;29904;51.058;5.378;2023-09-30T04:08:50;11.70;99.90
44229;DHT22;29904;51.058;5.378;2023-09-30T04:11:18;11.70;99.90
44229;DHT22;29904;51.058;5.378;2023-09-30T04:13:45;11.60;99.90
44229;DHT22;29904;51.058;5.378;2023-09-30T04:16:13;11.60;99.90
44229;DHT22;29904;51.058;5.378;2023-09-30T04:18:39;11.60;99.90
44229;DHT22;29904;51.058;5.378;2023-09-30T04:21:06;11.60;99.90
44229;DHT22;29904;51.058;5.378;2023-09-30T04:23:33;11.60;99.90
44229;DHT22;29904;51.058;5.378;2023-09-30T04:26:02;11.70;99.90
44229;DHT22;29904;51.058;5.378;2023-09-30T04:28:28;11.60;99.90
44229;DHT22;29904;51.058;5.378;2023-09-30T04:30:54;11.70;99.90
44229;DHT22;29904;51.058;5.378;2023-09-30T04:33:19;11.70;99.90
44229;DHT22;29904;51.058;5.378;2023-09-30T04:35:46;11.70;99.90
44229;DHT22;29904;51.058;5.378;2023-09-30T04:38:13;11.80;99.90
44229;DHT22;29904;51.058;5.378;2023-09-30T04:40:39;11.80;99.90
44229;DHT22;29904;51.058;5.378;2023-09-30T04:43:05;11.70;99.90
44229;DHT22;29904;51.058;5.378;2023-09-30T04:45:31;11.70;99.90
44229;DHT22;29904;51.058;5.378;2023-09-30T04:47:57;11.70;99.90
44229;DHT22;29904;51.058;5.378;2023-09-30T04:50:24;11.60;99.90
44229;DHT22;29904;51.058;5.378;2023-09-30T04:52:51;11.60;99.90
44229;DHT22;29904;51.058;5.378;2023-09-30T04:55:17;11.60;99.90
44229;DHT22;29904;51.058;5.378;2023-09-30T04:57:44;11.60;99.90
44229;DHT22;29904;51.058;5.378;2023-09-30T05:00:12;11.60;99.90
44229;DHT22;29904;51.058;5.378;2023-09-30T05:02:38;11.50;99.90
44229;DHT22;29904;51.058;5.378;2023-09-30T05:05:04;11.40;99.90
44229;DHT22;29904;51.058;5.378;2023-09-30T05:07:32;11.40;99.90
44229;DHT22;29904;51.058;5.378;2023-09-30T05:09:57;11.40;99.90
44229;DHT22;29904;51.058;5.378;2023-09-30T05:12:27;11.40;99.90
44229;DHT22;29904;51.058;5.378;2023-09-30T05:14:52;11.40;99.90
44229;DHT22;29904;51.058;5.378;2023-09-30T05:17:21;11.40;99.90
44229;DHT22;29904;51.058;5.378;2023-09-30T05:19:47;11.40;99.90
44229;DHT22;29904;51.058;5.378;2023-09-30T05:22:13;11.40;99.90
44229;DHT22;29904;51.058;5.378;2023-09-30T05:24:38;11.40;99.90
44229;DHT22;29904;51.058;5.378;2023-09-30T05:27:04;11.40;99.90
44229;DHT22;29904;51.058;5.378;2023-09-30T05:29:30;11.30;99.90
44229;DHT22;29904;51.058;5.378;2023-09-30T05:31:58;11.30;99.90
44229;DHT22;29904;51.058;5.378;2023-09-30T05:34:24;11.20;99.90
44229;DHT22;29904;51.058;5.378;2023-09-30T05:36:50;11.20;99.90
44229;DHT22;29904;51.058;5.378;2023-09-30T05:39:16;11.20;99.90
44229;DHT22;29904;51.058;5.378;2023-09-30T05:41:46;11.20;99.90
44229;DHT22;29904;51.058;5.378;2023-09-30T05:44:12;11.10;99.90
44229;DHT22;29904;51.058;5.378;2023-09-30T05:46:40;11.20;99.90
44229;DHT22;29904;51.058;5.378;2023-09-30T05:49:05;11.20;99.90
44229;DHT22;29904;51.058;5.378;2023-09-30T05:51:35;11.20;99.90
44229;DHT22;29904;51.058;5.378;2023-09-30T05:54:01;11.20;99.90
44229;DHT22;29904;51.058;5.378;2023-09-30T05:56:27;11.20;99.90
44229;DHT22;29904;51.058;5.378;2023-09-30T05:58:52;11.30;99.90
44229;DHT22;29904;51.058;5.378;2023-09-30T06:01:18;11.20;99.90
44229;DHT22;29904;51.058;5.378;2023-09-30T06:03:46;11.20;99.90
44229;DHT22;29904;51.058;5.378;2023-09-30T06:06:15;11.20;99.90
44229;DHT22;29904;51.058;5.378;2023-09-30T06:08:44;11.20;99.90
44229;DHT22;29904;51.058;5.378;2023-09-30T06:11:18;11.30;99.90
44229;DHT22;29904;51.058;5.378;2023-09-30T06:13:45;11.30;99.90
44229;DHT22;29904;51.058;5.378;2023-09-30T06:16:12;11.40;99.90
44229;DHT22;29904;51.058;5.378;2023-09-30T06:18:40;11.60;99.90
44229;DHT22;29904;51.058;5.378;2023-09-30T06:21:05;11.70;99.90
44229;DHT22;29904;51.058;5.378;2023-09-30T06:23:31;11.80;99.90
44229;DHT22;29904;51.058;5.378;2023-09-30T06:25:59;11.80;99.90
44229;DHT22;29904;51.058;5.378;2023-09-30T06:28:28;11.90;99.90
44229;DHT22;29904;51.058;5.378;2023-09-30T06:30:57;12.00;99.90
44229;DHT22;29904;51.058;5.378;2023-09-30T06:33:24;12.10;99.90
44229;DHT22;29904;51.058;5.378;2023-09-30T06:35:50;12.10;99.90
44229;DHT22;29904;51.058;5.378;2023-09-30T06:38:20;12.20;99.90
44229;DHT22;29904;51.058;5.378;2023-09-30T06:40:48;12.30;99.90
44229;DHT22;29904;51.058;5.378;2023-09-30T06:43:14;12.30;99.90
44229;DHT22;29904;51.058;5.378;2023-09-30T06:45:44;12.40;99.90
44229;DHT22;29904;51.058;5.378;2023-09-30T06:48:11;12.50;99.90
44229;DHT22;29904;51.058;5.378;2023-09-30T06:50:49;12.60;99.90
44229;DHT22;29904;51.058;5.378;2023-09-30T06:53:18;12.70;99.90
44229;DHT22;29904;51.058;5.378;2023-09-30T06:55:45;12.80;99.90
44229;DHT22;29904;51.058;5.378;2023-09-30T06:58:11;12.90;99.90
44229;DHT22;29904;51.058;5.378;2023-09-30T07:00:37;13.00;99.90
44229;DHT22;29904;51.058;5.378;2023-09-30T07:03:04;13.00;99.90
44229;DHT22;29904;51.058;5.378;2023-09-30T07:05:30;13.00;99.90
44229;DHT22;29904;51.058;5.378;2023-09-30T07:07:56;13.10;99.90
44229;DHT22;29904;51.058;5.378;2023-09-30T07:10:22;13.20;99.90
44229;DHT22;29904;51.058;5.378;2023-09-30T07:12:48;13.20;99.90
44229;DHT22;29904;51.058;5.378;2023-09-30T07:15:15;13.30;99.90
44229;DHT22;29904;51.058;5.378;2023-09-30T07:17:42;13.40;99.90
44229;DHT22;29904;51.058;5.378;2023-09-30T07:20:09;13.40;99.90
44229;DHT22;29904;51.058;5.378;2023-09-30T07:22:35;13.50;99.90
44229;DHT22;29904;51.058;5.378;2023-09-30T07:25:01;13.50;99.90
44229;DHT22;29904;51.058;5.378;2023-09-30T07:27:27;13.50;99.90
44229;DHT22;29904;51.058;5.378;2023-09-30T07:29:53;13.60;99.90
44229;DHT22;29904;51.058;5.378;2023-09-30T07:32:19;13.70;99.90
44229;DHT22;29904;51.058;5.378;2023-09-30T07:34:48;13.80;99.90
44229;DHT22;29904;51.058;5.378;2023-09-30T07:37:13;13.80;99.90
44229;DHT22;29904;51.058;5.378;2023-09-30T07:39:40;13.90;99.90
44229;DHT22;29904;51.058;5.378;2023-09-30T07:42:11;13.90;99.90
44229;DHT22;29904;51.058;5.378;2023-09-30T07:44:37;13.90;99.90
44229;DHT22;29904;51.058;5.378;2023-09-30T07:47:05;13.90;99.90
44229;DHT22;29904;51.058;5.378;2023-09-30T07:49:34;13.90;99.90
44229;DHT22;29904;51.058;5.378;2023-09-30T07:52:03;13.90;99.90
44229;DHT22;29904;51.058;5.378;2023-09-30T07:54:31;13.90;99.90
44229;DHT22;29904;51.058;5.378;2023-09-30T07:56:59;14.00;99.90
44229;DHT22;29904;51.058;5.378;2023-09-30T07:59:25;14.10;99.90
44229;DHT22;29904;51.058;5.378;2023-09-30T08:01:53;14.30;99.90
44229;DHT22;29904;51.058;5.378;2023-09-30T08:04:19;14.40;99.90
44229;DHT22;29904;51.058;5.378;2023-09-30T08:06:45;14.50;99.90
44229;DHT22;29904;51.058;5.378;2023-09-30T08:09:16;14.60;99.90
44229;DHT22;29904;51.058;5.378;2023-09-30T08:11:44;14.60;99.90
44229;DHT22;29904;51.058;5.378;2023-09-30T08:14:09;14.80;99.90
44229;DHT22;29904;51.058;5.378;2023-09-30T08:16:38;14.80;99.90
44229;DHT22;29904;51.058;5.378;2023-09-30T08:19:04;14.90;99.90
44229;DHT22;29904;51.058;5.378;2023-09-30T08:21:30;15.20;99.90
44229;DHT22;29904;51.058;5.378;2023-09-30T08:23:57;15.30;99.90
44229;DHT22;29904;51.058;5.378;2023-09-30T08:26:22;15.50;99.90
44229;DHT22;29904;51.058;5.378;2023-09-30T08:28:48;15.60;99.90
44229;DHT22;29904;51.058;5.378;2023-09-30T08:31:16;15.60;99.90
44229;DHT22;29904;51.058;5.378;2023-09-30T08:33:45;15.70;99.90
44229;DHT22;29904;51.058;5.378;2023-09-30T08:36:11;15.70;99.90
44229;DHT22;29904;51.058;5.378;2023-09-30T08:38:38;15.70;99.90
44229;DHT22;29904;51.058;5.378;2023-09-30T08:41:05;15.80;99.90
44229;DHT22;29904;51.058;5.378;2023-09-30T08:43:30;15.80;99.90
44229;DHT22;29904;51.058;5.378;2023-09-30T08:45:58;15.90;99.90
44229;DHT22;29904;51.058;5.378;2023-09-30T08:48:26;16.10;99.90
44229;DHT22;29904;51.058;5.378;2023-09-30T08:50:53;16.10;99.90
44229;DHT22;29904;51.058;5.378;2023-09-30T08:53:22;16.10;99.90
44229;DHT22;29904;51.058;5.378;2023-09-30T08:55:48;16.10;99.90
44229;DHT22;29904;51.058;5.378;2023-09-30T08:58:16;16.10;99.90
44229;DHT22;29904;51.058;5.378;2023-09-30T09:00:44;16.10;99.90
44229;DHT22;29904;51.058;5.378;2023-09-30T09:03:10;16.10;99.90
44229;DHT22;29904;51.058;5.378;2023-09-30T09:05:36;16.10;99.90
44229;DHT22;29904;51.058;5.378;2023-09-30T09:08:04;16.10;99.90
44229;DHT22;29904;51.058;5.378;2023-09-30T09:10:30;16.00;99.90
44229;DHT22;29904;51.058;5.378;2023-09-30T09:12:58;16.00;99.90
44229;DHT22;29904;51.058;5.378;2023-09-30T09:15:25;16.00;99.90
44229;DHT22;29904;51.058;5.378;2023-09-30T09:17:54;16.10;99.90
44229;DHT22;29904;51.058;5.378;2023-09-30T09:20:22;16.10;99.90
44229;DHT22;29904;51.058;5.378;2023-09-30T09:22:51;16.30;99.90
44229;DHT22;29904;51.058;5.378;2023-09-30T09:25:23;16.40;99.90
44229;DHT22;29904;51.058;5.378;2023-09-30T09:27:50;16.60;99.90
44229;DHT22;29904;51.058;5.378;2023-09-30T09:30:20;16.70;99.90
44229;DHT22;29904;51.058;5.378;2023-09-30T09:35:25;16.80;99.90
44229;DHT22;29904;51.058;5.378;2023-09-30T09:37:59;16.70;99.90
44229;DHT22;29904;51.058;5.378;2023-09-30T09:40:30;16.80;99.90
44229;DHT22;29904;51.058;5.378;2023-09-30T09:42:58;16.80;99.90
44229;DHT22;29904;51.058;5.378;2023-09-30T09:45:26;16.70;99.90
44229;DHT22;29904;51.058;5.378;2023-09-30T09:47:53;16.70;99.90
44229;DHT22;29904;51.058;5.378;2023-09-30T09:50:21;16.80;99.90
44229;DHT22;29904;51.058;5.378;2023-09-30T09:52:54;16.70;99.90
44229;DHT22;29904;51.058;5.378;2023-09-30T09:55:24;16.90;99.90
44229;DHT22;29904;51.058;5.378;2023-09-30T09:57:51;17.00;99.90
44229;DHT22;29904;51.058;5.378;2023-09-30T10:00:19;17.00;99.90
44229;DHT22;29904;51.058;5.378;2023-09-30T10:02:48;17.00;99.90
44229;DHT22;29904;51.058;5.378;2023-09-30T10:05:15;16.90;99.90
44229;DHT22;29904;51.058;5.378;2023-09-30T10:08:05;17.00;99.90
44229;DHT22;29904;51.058;5.378;2023-09-30T10:10:36;17.00;99.90
44229;DHT22;29904;51.058;5.378;2023-09-30T10:13:07;17.00;99.90
44229;DHT22;29904;51.058;5.378;2023-09-30T10:20:31;17.20;99.90
44229;DHT22;29904;51.058;5.378;2023-09-30T10:23:26;17.20;99.90
44229;DHT22;29904;51.058;5.378;2023-09-30T10:26:19;17.30;99.90
44229;DHT22;29904;51.058;5.378;2023-09-30T10:28:46;17.30;99.90
44229;DHT22;29904;51.058;5.378;2023-09-30T10:31:18;17.30;99.90
44229;DHT22;29904;51.058;5.378;2023-09-30T10:36:36;17.50;99.90
44229;DHT22;29904;51.058;5.378;2023-09-30T10:39:03;17.60;99.90
44229;DHT22;29904;51.058;5.378;2023-09-30T10:46:59;18.00;99.90
44229;DHT22;29904;51.058;5.378;2023-09-30T10:51:52;18.30;99.90
44229;DHT22;29904;51.058;5.378;2023-09-30T10:54:30;18.40;99.90
44229;DHT22;29904;51.058;5.378;2023-09-30T10:56:57;18.50;99.90
44229;DHT22;29904;51.058;5.378;2023-09-30T10:59:30;18.60;99.90
44229;DHT22;29904;51.058;5.378;2023-09-30T11:01:57;18.60;99.90
44229;DHT22;29904;51.058;5.378;2023-09-30T11:04:23;18.60;99.90
44229;DHT22;29904;51.058;5.378;2023-09-30T11:06:49;18.70;99.90
44229;DHT22;29904;51.058;5.378;2023-09-30T11:09:20;18.80;99.90
44229;DHT22;29904;51.058;5.378;2023-09-30T11:11:48;18.90;99.90
44229;DHT22;29904;51.058;5.378;2023-09-30T11:14:28;18.90;99.90
44229;DHT22;29904;51.058;5.378;2023-09-30T11:16:59;18.90;99.90
44229;DHT22;29904;51.058;5.378;2023-09-30T11:19:27;19.00;99.90
44229;DHT22;29904;51.058;5.378;2023-09-30T11:21:55;19.10;99.90
44229;DHT22;29904;51.058;5.378;2023-09-30T11:24:21;19.10;99.90
44229;DHT22;29904;51.058;5.378;2023-09-30T11:26:47;19.20;99.90
44229;DHT22;29904;51.058;5.378;2023-09-30T11:29:18;19.30;99.90
44229;DHT22;29904;51.058;5.378;2023-09-30T11:31:48;19.40;99.90
44229;DHT22;29904;51.058;5.378;2023-09-30T11:34:15;19.40;99.90
44229;DHT22;29904;51.058;5.378;2023-09-30T11:36:51;19.50;99.90
44229;DHT22;29904;51.058;5.378;2023-09-30T11:39:27;19.60;99.90
44229;DHT22;29904;51.058;5.378;2023-09-30T11:41:55;19.60;99.90
44229;DHT22;29904;51.058;5.378;2023-09-30T11:44:26;19.70;99.90
44229;DHT22;29904;51.058;5.378;2023-09-30T11:47:00;19.80;99.90
44229;DHT22;29904;51.058;5.378;2023-09-30T11:52:11;19.90;99.90
44229;DHT22;29904;51.058;5.378;2023-09-30T11:54:43;19.90;99.90
44229;DHT22;29904;51.058;5.378;2023-09-30T11:57:15;20.00;99.90
44229;DHT22;29904;51.058;5.378;2023-09-30T11:59:41;20.10;99.90
44229;DHT22;29904;51.058;5.378;2023-09-30T12:02:08;20.20;99.90
44229;DHT22;29904;51.058;5.378;2023-09-30T12:04:35;20.20;99.90
44229;DHT22;29904;51.058;5.378;2023-09-30T12:07:00;20.30;99.90
44229;DHT22;29904;51.058;5.378;2023-09-30T12:09:26;20.40;99.90
44229;DHT22;29904;51.058;5.378;2023-09-30T12:11:54;20.70;99.90
44229;DHT22;29904;51.058;5.378;2023-09-30T12:14:20;20.60;99.90
44229;DHT22;29904;51.058;5.378;2023-09-30T12:16:48;20.50;99.90
44229;DHT22;29904;51.058;5.378;2023-09-30T12:19:15;20.50;99.90
44229;DHT22;29904;51.058;5.378;2023-09-30T12:21:43;20.50;99.90
44229;DHT22;29904;51.058;5.378;2023-09-30T12:24:12;20.60;99.90
44229;DHT22;29904;51.058;5.378;2023-09-30T12:26:42;20.90;99.90
44229;DHT22;29904;51.058;5.378;2023-09-30T12:29:10;21.20;99.90
44229;DHT22;29904;51.058;5.378;2023-09-30T12:31:35;21.30;99.90
44229;DHT22;29904;51.058;5.378;2023-09-30T12:34:01;21.30;99.90
44229;DHT22;29904;51.058;5.378;2023-09-30T12:36:29;21.30;99.90
44229;DHT22;29904;51.058;5.378;2023-09-30T12:38:58;21.20;99.90
44229;DHT22;29904;51.058;5.378;2023-09-30T12:41:23;21.10;99.90
44229;DHT22;29904;51.058;5.378;2023-09-30T12:43:51;21.00;99.90
44229;DHT22;29904;51.058;5.378;2023-09-30T12:46:18;21.00;99.90
44229;DHT22;29904;51.058;5.378;2023-09-30T12:48:44;21.20;99.90
44229;DHT22;29904;51.058;5.378;2023-09-30T12:51:10;21.10;99.90
44229;DHT22;29904;51.058;5.378;2023-09-30T12:53:36;21.00;99.90
44229;DHT22;29904;51.058;5.378;2023-09-30T12:56:02;20.90;99.90
44229;DHT22;29904;51.058;5.378;2023-09-30T12:58:27;20.90;99.90
44229;DHT22;29904;51.058;5.378;2023-09-30T13:00:56;21.00;99.90
44229;DHT22;29904;51.058;5.378;2023-09-30T13:03:23;20.90;99.90
44229;DHT22;29904;51.058;5.378;2023-09-30T13:05:49;21.00;99.90
44229;DHT22;29904;51.058;5.378;2023-09-30T13:08:16;21.20;99.90
44229;DHT22;29904;51.058;5.378;2023-09-30T13:10:41;21.40;99.90
44229;DHT22;29904;51.058;5.378;2023-09-30T13:13:09;21.50;99.90
44229;DHT22;29904;51.058;5.378;2023-09-30T13:15:35;21.70;99.90
44229;DHT22;29904;51.058;5.378;2023-09-30T13:18:03;21.60;99.90
44229;DHT22;29904;51.058;5.378;2023-09-30T13:20:29;21.50;99.90
44229;DHT22;29904;51.058;5.378;2023-09-30T13:22:54;21.70;99.90
44229;DHT22;29904;51.058;5.378;2023-09-30T13:25:20;21.70;99.90
44229;DHT22;29904;51.058;5.378;2023-09-30T13:27:46;21.70;99.90
44229;DHT22;29904;51.058;5.378;2023-09-30T13:30:12;21.80;99.90
44229;DHT22;29904;51.058;5.378;2023-09-30T13:32:38;21.70;99.90
44229;DHT22;29904;51.058;5.378;2023-09-30T13:35:05;21.70;99.90
44229;DHT22;29904;51.058;5.378;2023-09-30T13:37:32;21.80;99.90
44229;DHT22;29904;51.058;5.378;2023-09-30T13:40:02;21.80;99.90
44229;DHT22;29904;51.058;5.378;2023-09-30T13:42:30;21.80;99.90
44229;DHT22;29904;51.058;5.378;2023-09-30T13:44:56;21.80;99.90
44229;DHT22;29904;51.058;5.378;2023-09-30T13:47:26;21.80;99.90
44229;DHT22;29904;51.058;5.378;2023-09-30T13:49:52;21.80;99.90
44229;DHT22;29904;51.058;5.378;2023-09-30T13:52:18;21.70;99.90
44229;DHT22;29904;51.058;5.378;2023-09-30T13:54:43;21.60;99.90
44229;DHT22;29904;51.058;5.378;2023-09-30T13:57:09;21.50;99.90
44229;DHT22;29904;51.058;5.378;2023-09-30T13:59:35;21.40;99.90
44229;DHT22;29904;51.058;5.378;2023-09-30T14:02:04;21.40;99.90
44229;DHT22;29904;51.058;5.378;2023-09-30T14:04:30;21.30;99.90
44229;DHT22;29904;51.058;5.378;2023-09-30T14:07:01;21.20;99.90
44229;DHT22;29904;51.058;5.378;2023-09-30T14:09:30;21.20;99.90
44229;DHT22;29904;51.058;5.378;2023-09-30T14:11:55;21.20;99.90
44229;DHT22;29904;51.058;5.378;2023-09-30T14:14:21;21.10;99.90
44229;DHT22;29904;51.058;5.378;2023-09-30T14:16:49;21.10;99.90
44229;DHT22;29904;51.058;5.378;2023-09-30T14:19:16;21.10;99.90
44229;DHT22;29904;51.058;5.378;2023-09-30T14:21:42;21.00;99.90
44229;DHT22;29904;51.058;5.378;2023-09-30T14:24:08;21.10;99.90
44229;DHT22;29904;51.058;5.378;2023-09-30T14:26:34;21.10;99.90
44229;DHT22;29904;51.058;5.378;2023-09-30T14:29:00;20.90;99.90
44229;DHT22;29904;51.058;5.378;2023-09-30T14:31:26;20.90;99.90
44229;DHT22;29904;51.058;5.378;2023-09-30T14:33:51;20.90;99.90
44229;DHT22;29904;51.058;5.378;2023-09-30T14:36:18;20.90;99.90
44229;DHT22;29904;51.058;5.378;2023-09-30T14:38:47;20.90;99.90
44229;DHT22;29904;51.058;5.378;2023-09-30T14:41:14;20.90;99.90
44229;DHT22;29904;51.058;5.378;2023-09-30T14:43:40;20.80;99.90
44229;DHT22;29904;51.058;5.378;2023-09-30T14:46:08;20.80;99.90
44229;DHT22;29904;51.058;5.378;2023-09-30T14:48:34;20.70;99.90
44229;DHT22;29904;51.058;5.378;2023-09-30T14:50:59;20.80;99.90
44229;DHT22;29904;51.058;5.378;2023-09-30T14:53:25;20.70;99.90
44229;DHT22;29904;51.058;5.378;2023-09-30T14:55:51;20.70;99.90
44229;DHT22;29904;51.058;5.378;2023-09-30T14:58:17;20.60;99.90
44229;DHT22;29904;51.058;5.378;2023-09-30T15:00:45;20.60;99.90
44229;DHT22;29904;51.058;5.378;2023-09-30T15:03:10;20.60;99.90
44229;DHT22;29904;51.058;5.378;2023-09-30T15:05:36;20.70;99.90
44229;DHT22;29904;51.058;5.378;2023-09-30T15:08:02;20.80;99.90
44229;DHT22;29904;51.058;5.378;2023-09-30T15:10:28;20.80;99.90
44229;DHT22;29904;51.058;5.378;2023-09-30T15:12:55;20.90;99.90
44229;DHT22;29904;51.058;5.378;2023-09-30T15:15:20;20.90;99.90
44229;DHT22;29904;51.058;5.378;2023-09-30T15:17:46;20.90;99.90
44229;DHT22;29904;51.058;5.378;2023-09-30T15:20:12;20.90;99.90
44229;DHT22;29904;51.058;5.378;2023-09-30T15:22:40;20.90;99.90
44229;DHT22;29904;51.058;5.378;2023-09-30T15:25:06;20.80;99.90
44229;DHT22;29904;51.058;5.378;2023-09-30T15:27:32;20.80;99.90
44229;DHT22;29904;51.058;5.378;2023-09-30T15:30:01;20.70;99.90
44229;DHT22;29904;51.058;5.378;2023-09-30T15:32:26;20.60;99.90
44229;DHT22;29904;51.058;5.378;2023-09-30T15:34:53;20.60;99.90
44229;DHT22;29904;51.058;5.378;2023-09-30T15:37:19;20.50;99.90
44229;DHT22;29904;51.058;5.378;2023-09-30T15:39:44;20.40;99.90
44229;DHT22;29904;51.058;5.378;2023-09-30T15:42:13;20.40;99.90
44229;DHT22;29904;51.058;5.378;2023-09-30T15:44:40;20.40;99.90
44229;DHT22;29904;51.058;5.378;2023-09-30T15:47:07;20.30;99.90
44229;DHT22;29904;51.058;5.378;2023-09-30T15:49:34;20.30;99.90
44229;DHT22;29904;51.058;5.378;2023-09-30T15:52:02;20.20;99.90